Gahagan, Louisiana
Current Conditions -  °F | °C
As of 9:15 AM on Monday 24 Nov 2014 (Local Time) from KIER Reporting Station
Clear Clear  
Wind Chill: 54°   Ceiling: Unl
Heat Index: 54°   Visibility: 10mi
Dew Point: 43°   Wind: 10mph
Humidity: 65%   Direction: 330°NNW
Pressure: 30"   Gusts: 16mph
Location:  32.1001°N, 93.2912°W
Report Text: KIER 241515Z AUTO 33009G14KT 10SM CLR 12/06 A3000 RMK AO2 T01230059
Loading
Personal Weather Stations






























Interactive Weather Map New forecast layout! Learn more

10-Day Weather Forecast

Advertisements
Track Severe Weather on mobile